Terminal Aerodrome Forecast
Issued by NWS Boston, MA

Current Version | Previous Version | Text Only | Print | Product List | Glossary On
Versions: 1 2 3 4 5 6 7 8 9 10 11 12 13 14 15 16 17 18 19 20 21 22 23 24 25 26 27
000 FTUS41 KBOX 250543 AAB TAFBOS TAF AMD KBOS 250543Z 2506/2612 VRB03KT P6SM OVC006 FM251000 VRB03KT P6SM SCT006 BKN070 FM251200 24004KT P6SM SCT200 FM252100 26008KT P6SM SCT150 FM261100 30006KT P6SM FEW250=

USA.gov is the U.S. government's official web portal to all federal, state and local government web resources and services.